KFTW/FTW METAR and TAF weather

Enter ICAO airport designator
Station Type Date Time Source
KFTW METAR 2020/07/15 07:53 UTC NOAA

KFTW 150753Z 16015G21KT 10SM CLR 28/20 A2983 RMK AO2 SLP089 T02780200


Station Type Date Time Source
KFTW Decoded METAR 2020/07/15 07:53 UTC NOAA

FORT WORTH MEACHAM INTERNATIONAL ., TX, United States (KFTW) 32-50N 097-22W 214M
Jul 15, 2020 - 03:53 AM EDT / 2020.07.15 0753 UTC
Wind: from the SSE (160 degrees) at 17 MPH (15 KT) gusting to 24 MPH (21 KT):0
Visibility: 10 mile(s):0
Sky conditions: clear
Temperature: 82.0 F (27.8 C)
Dew Point: 68.0 F (20.0 C)
Relative Humidity: 62%
Pressure (altimeter): 29.83 in. Hg (1010 hPa)
ob: KFTW 150753Z 16015G21KT 10SM CLR 28/20 A2983 RMK AO2 SLP089 T02780200
cycle: 8

Station Type Date Time Source
KFTW TAF 2020/07/15 06:22 UTC NOAA

TAF KFTW 150520Z 1506/1606 17015G25KT P6SM VCSH SCT110 BKN250
FM151300 17015G25KT P6SM FEW150 BKN250
FM160100 18016KT P6SM SCT250

Example: see airport list